Hugoton, Kansas
Current Conditions -  °F | °C
As of 1:55 AM on Monday 22 Dec 2014 (Local Time) from KLBL Reporting Station
Few Clouds Few Clouds  
Wind Chill: 26°   Ceiling: Unl
Heat Index: 34°   Visibility: 10mi
Dew Point: 27°   Wind: 10mph
Humidity: 75%   Direction: 300°WNW
Pressure: 29.59"   Gusts: NA
Location:  37.18°N, 101.35°W
Report Text: KLBL 220755Z AUTO 30009KT 10SM FEW100 01/M03 A2959 RMK AO1
Loading
Personal Weather Stations






























Interactive Weather Map New forecast layout! Learn more

10-Day Weather Forecast

Advertisements
Track Severe Weather on mobile